Orwell, New York
Current Conditions -  °F | °C
As of 10:39 AM on Thursday 30 Oct 2014 (Local Time) from KFZY Reporting Station
Haze Haze  
Wind Chill: 42°   Ceiling: 2600
Heat Index: 46°   Visibility: 0.75mi
Dew Point: 38°   Wind: 8mph
Humidity: 73%   Direction: 310°NW
Pressure: 30.03"   Gusts: NA
Location:  43.57°N, 76°W
Report Text: KFZY 301439Z AUTO 31007KT 3/4SM HZ OVC026 08/03 A3003 RMK AO2 VIS M1/4V5 T00780033
Loading
Personal Weather Stations






























Interactive Weather Map
Tropical Storm Tracking
New forecast layout! Learn more

10-Day Weather Forecast

Advertisements
Track Severe Weather on mobile